createdAt,value
2015-08-20T00:00:03.984Z,0.86
2015-08-20T00:00:16.359Z,0.85
2015-08-20T00:00:28.719Z,0.9
2015-08-20T00:00:41.094Z,0.82
2015-08-20T00:00:53.485Z,0.86
2015-08-20T00:01:05.845Z,0.84
2015-08-20T00:01:18.235Z,0.9
2015-08-20T00:01:30.610Z,0.99
2015-08-20T00:01:43.001Z,0.86
2015-08-20T00:01:55.379Z,0.97
2015-08-20T00:02:07.754Z,0.97
2015-08-20T00:02:20.113Z,1
2015-08-20T00:02:32.488Z,0.96
2015-08-20T00:02:44.879Z,0.89
2015-08-20T00:02:57.272Z,1
2015-08-20T00:03:09.647Z,0.92
2015-08-20T00:03:22.022Z,0.96
2015-08-20T00:03:34.412Z,0.9
2015-08-20T00:03:46.787Z,0.97
2015-08-20T00:03:59.180Z,0.94
2015-08-20T00:04:11.570Z,0.94
2015-08-20T00:04:23.992Z,0.94
2015-08-20T00:04:36.399Z,0.93
2015-08-20T00:04:48.805Z,0.96
2015-08-20T00:05:01.213Z,0.94
2015-08-20T00:05:13.619Z,0.94
2015-08-20T00:05:26.010Z,0.96
2015-08-20T00:05:38.416Z,0.93
2015-08-20T00:05:50.838Z,0.97
2015-08-20T00:06:03.231Z,0.86
2015-08-20T00:06:15.637Z,1
2015-08-20T00:06:28.043Z,1.08
2015-08-20T00:06:40.449Z,0.96
2015-08-20T00:06:52.871Z,0.97
2015-08-20T00:07:05.248Z,1.02
2015-08-20T00:07:17.623Z,0.96
2015-08-20T00:07:29.998Z,0.99
2015-08-20T00:07:42.373Z,0.92
2015-08-20T00:07:54.764Z,0.96
2015-08-20T00:08:07.141Z,0.96
2015-08-20T00:08:19.516Z,1.02
2015-08-20T00:08:31.907Z,1.07
2015-08-20T00:08:43.563Z,1.07
2015-08-20T00:08:55.938Z,1.03
2015-08-20T00:09:08.299Z,0.99
2015-08-20T00:09:20.690Z,1.03
2015-08-20T00:09:33.065Z,1.07
2015-08-20T00:09:45.424Z,1
2015-08-20T00:09:57.815Z,1.08
2015-08-20T00:10:10.175Z,1.04
2015-08-20T00:10:22.535Z,1.08
2015-08-20T00:10:34.894Z,1.04
2015-08-20T00:10:47.269Z,1.07
2015-08-20T00:10:59.644Z,1
2015-08-20T00:11:12.022Z,1.07
2015-08-20T00:11:24.397Z,1.02
2015-08-20T00:11:36.772Z,1.08
2015-08-20T00:11:49.147Z,1.08
2015-08-20T00:12:01.522Z,1.07
2015-08-20T00:12:13.898Z,1.08
2015-08-20T00:12:26.273Z,1.1
2015-08-20T00:12:38.507Z,1.1
2015-08-20T00:12:50.898Z,1.07
2015-08-20T00:13:03.273Z,1.08
2015-08-20T00:13:15.666Z,1.07
2015-08-20T00:13:28.041Z,1.07
2015-08-20T00:13:40.431Z,1.15
2015-08-20T00:13:52.822Z,1
2015-08-20T00:14:05.228Z,1
2015-08-20T00:14:16.918Z,1.08
2015-08-20T00:14:29.308Z,1.11
2015-08-20T00:14:41.714Z,1.04
2015-08-20T00:14:54.121Z,1.02
2015-08-20T00:15:06.527Z,1
2015-08-20T00:15:18.935Z,1.02
2015-08-20T00:15:31.357Z,1.02
2015-08-20T00:15:43.748Z,0.94
2015-08-20T00:15:56.154Z,1.03
2015-08-20T00:16:08.576Z,0.99
2015-08-20T00:16:20.954Z,0.99
2015-08-20T00:16:33.329Z,1.07
2015-08-20T00:16:45.704Z,1
2015-08-20T00:16:58.063Z,1.04
2015-08-20T00:17:10.454Z,0.97
2015-08-20T00:17:22.831Z,1.02
2015-08-20T00:17:35.206Z,0.99
2015-08-20T00:17:47.581Z,0.97
2015-08-20T00:17:59.956Z,0.93
2015-08-20T00:18:12.331Z,0.94
2015-08-20T00:18:24.708Z,0.97
2015-08-20T00:18:37.083Z,0.96
2015-08-20T00:18:49.458Z,1
2015-08-20T00:19:01.114Z,1
2015-08-20T00:19:13.489Z,1
2015-08-20T00:19:25.866Z,0.92
2015-08-20T00:19:38.241Z,1
2015-08-20T00:19:49.897Z,0.99
2015-08-20T00:20:02.272Z,0.97
2015-08-20T00:20:14.647Z,1.03
2015-08-20T00:20:27.024Z,0.9
2015-08-20T00:20:39.415Z,0.97
2015-08-20T00:20:51.790Z,0.93
2015-08-20T00:21:04.165Z,1
2015-08-20T00:21:16.524Z,0.93
2015-08-20T00:21:28.901Z,0.97
2015-08-20T00:21:41.276Z,0.96
2015-08-20T00:21:53.651Z,0.96
2015-08-20T00:22:06.042Z,0.96
2015-08-20T00:22:18.433Z,0.99
2015-08-20T00:22:30.809Z,0.96
2015-08-20T00:22:43.184Z,0.93
2015-08-20T00:22:55.559Z,0.97
2015-08-20T00:23:07.934Z,0.92
2015-08-20T00:23:20.340Z,0.92
2015-08-20T00:23:32.749Z,0.92
2015-08-20T00:23:45.171Z,0.94
2015-08-20T00:23:57.577Z,0.96
2015-08-20T00:24:09.968Z,0.96
2015-08-20T00:24:21.671Z,0.93
2015-08-20T00:24:34.094Z,0.97
2015-08-20T00:24:46.500Z,0.94
2015-08-20T00:24:58.938Z,0.86
2015-08-20T00:25:11.328Z,0.92
2015-08-20T00:25:23.734Z,1.03
2015-08-20T00:25:36.143Z,0.92
2015-08-20T00:25:48.565Z,0.96
2015-08-20T00:26:00.940Z,0.96
2015-08-20T00:26:13.299Z,0.94
2015-08-20T00:26:25.674Z,0.96
2015-08-20T00:26:38.051Z,0.97
2015-08-20T00:26:50.410Z,1.03
2015-08-20T00:27:02.801Z,1
2015-08-20T00:27:15.160Z,1
2015-08-20T00:27:27.551Z,0.96
2015-08-20T00:27:39.928Z,1.03
2015-08-20T00:27:52.303Z,0.93
2015-08-20T00:28:04.662Z,0.99
2015-08-20T00:28:17.037Z,0.92
2015-08-20T00:28:29.412Z,0.92
2015-08-20T00:28:41.805Z,0.97
2015-08-20T00:28:54.180Z,0.96
2015-08-20T00:29:06.555Z,0.96
2015-08-20T00:29:18.930Z,0.97
2015-08-20T00:29:31.305Z,0.93
2015-08-20T00:29:43.682Z,0.96
2015-08-20T00:29:56.073Z,0.97
2015-08-20T00:30:08.448Z,0.96
2015-08-20T00:30:20.838Z,0.94
2015-08-20T00:30:33.198Z,1.04
2015-08-20T00:30:45.590Z,0.89
2015-08-20T00:30:57.965Z,0.92
2015-08-20T00:31:10.325Z,1.04
2015-08-20T00:31:22.700Z,0.96
2015-08-20T00:31:35.075Z,0.92
2015-08-20T00:31:47.452Z,0.93
2015-08-20T00:31:59.842Z,1
2015-08-20T00:32:12.217Z,1
2015-08-20T00:32:24.608Z,0.94
2015-08-20T00:32:36.983Z,0.93
2015-08-20T00:32:49.375Z,0.97
2015-08-20T00:33:01.782Z,0.93
2015-08-20T00:33:14.188Z,0.96
2015-08-20T00:33:26.594Z,0.96
2015-08-20T00:33:39.000Z,0.96
2015-08-20T00:33:51.425Z,0.92
2015-08-20T00:34:03.831Z,0.97
2015-08-20T00:34:16.222Z,0.92
2015-08-20T00:34:28.628Z,0.89
2015-08-20T00:34:40.362Z,1
2015-08-20T00:34:52.800Z,0.93
2015-08-20T00:35:04.487Z,0.96
2015-08-20T00:35:16.894Z,0.99
2015-08-20T00:35:29.269Z,0.96
2015-08-20T00:35:41.644Z,0.97
2015-08-20T00:35:54.065Z,0.94
2015-08-20T00:36:06.440Z,1
2015-08-20T00:36:18.815Z,0.89
2015-08-20T00:36:31.190Z,1.03
2015-08-20T00:36:43.565Z,0.94
2015-08-20T00:36:55.986Z,0.94
2015-08-20T00:37:08.361Z,0.96
2015-08-20T00:37:20.736Z,0.94
2015-08-20T00:37:33.095Z,0.96
2015-08-20T00:37:45.470Z,0.96
2015-08-20T00:37:57.892Z,0.96
2015-08-20T00:38:10.283Z,0.92
2015-08-20T00:38:22.658Z,0.96
2015-08-20T00:38:35.017Z,0.93
2015-08-20T00:38:47.408Z,0.86
2015-08-20T00:38:59.800Z,0.9
2015-08-20T00:39:12.175Z,0.97
2015-08-20T00:39:24.550Z,0.93
2015-08-20T00:39:36.925Z,0.96
2015-08-20T00:39:49.159Z,0.96
2015-08-20T00:40:01.552Z,0.92
2015-08-20T00:40:13.927Z,1
2015-08-20T00:40:26.302Z,1
2015-08-20T00:40:38.677Z,0.92
2015-08-20T00:40:51.052Z,0.92
2015-08-20T00:41:03.462Z,1
2015-08-20T00:41:15.837Z,0.94
2015-08-20T00:41:28.228Z,1
2015-08-20T00:41:40.618Z,0.92
2015-08-20T00:41:53.009Z,0.94
2015-08-20T00:42:05.402Z,0.99
2015-08-20T00:42:17.792Z,0.94
2015-08-20T00:42:30.199Z,0.96
2015-08-20T00:42:42.605Z,0.96
2015-08-20T00:42:55.011Z,1.02
2015-08-20T00:43:07.420Z,1.04
2015-08-20T00:43:19.842Z,0.96
2015-08-20T00:43:32.232Z,0.94
2015-08-20T00:43:44.639Z,0.96
2015-08-20T00:43:57.060Z,0.99
2015-08-20T00:44:09.478Z,1
2015-08-20T00:44:21.868Z,0.99
2015-08-20T00:44:34.275Z,0.92
2015-08-20T00:44:46.681Z,0.9
2015-08-20T00:44:59.087Z,0.97
2015-08-20T00:45:11.455Z,0.99
2015-08-20T00:45:23.830Z,0.97
2015-08-20T00:45:36.205Z,1
2015-08-20T00:45:48.580Z,1.03
2015-08-20T00:46:00.955Z,1
2015-08-20T00:46:13.322Z,1.04
2015-08-20T00:46:25.712Z,1.04
2015-08-20T00:46:38.087Z,1.03
2015-08-20T00:46:50.462Z,0.96
2015-08-20T00:47:02.837Z,1.03
2015-08-20T00:47:15.220Z,1.04
2015-08-20T00:47:27.595Z,1.04
2015-08-20T00:47:39.970Z,1.04
2015-08-20T00:47:52.345Z,0.97
2015-08-20T00:48:04.720Z,1.1
2015-08-20T00:48:17.103Z,1.1
2015-08-20T00:48:29.478Z,1.04
2015-08-20T00:48:41.853Z,1.1
2015-08-20T00:48:54.228Z,1.03
2015-08-20T00:49:06.603Z,1.02
2015-08-20T00:49:18.983Z,1.03
2015-08-20T00:49:31.343Z,1.07
2015-08-20T00:49:43.718Z,1.11
2015-08-20T00:49:56.093Z,0.99
2015-08-20T00:50:08.483Z,1.03
2015-08-20T00:50:20.862Z,1.02
2015-08-20T00:50:33.237Z,1.1
2015-08-20T00:50:45.612Z,1.07
2015-08-20T00:50:58.003Z,1.1
2015-08-20T00:51:10.378Z,1.1
2015-08-20T00:51:22.757Z,1.03
2015-08-20T00:51:35.148Z,1.04
2015-08-20T00:51:47.538Z,1.03
2015-08-20T00:51:59.929Z,1.02
2015-08-20T00:52:12.335Z,1.1
2015-08-20T00:52:24.744Z,1.08
2015-08-20T00:52:37.151Z,1.12
2015-08-20T00:52:49.557Z,1.1
2015-08-20T00:53:01.948Z,1.14
2015-08-20T00:53:14.369Z,1.04
2015-08-20T00:53:26.765Z,1.04
2015-08-20T00:53:39.187Z,1.08
2015-08-20T00:53:51.593Z,1.11
2015-08-20T00:54:03.999Z,1.03
2015-08-20T00:54:16.406Z,1.1
2015-08-20T00:54:28.798Z,1.08
2015-08-20T00:54:41.080Z,1.08
2015-08-20T00:54:53.455Z,1.14
2015-08-20T00:55:05.830Z,1.02
2015-08-20T00:55:18.205Z,1.02
2015-08-20T00:55:30.583Z,1.1
2015-08-20T00:55:42.958Z,1.07
2015-08-20T00:55:55.333Z,1.11
2015-08-20T00:56:07.708Z,1.07
2015-08-20T00:56:20.083Z,1.03
2015-08-20T00:56:32.461Z,1.04
2015-08-20T00:56:44.836Z,1.04
2015-08-20T00:56:57.211Z,1.1
2015-08-20T00:57:09.586Z,1.11
2015-08-20T00:57:21.961Z,1.1
2015-08-20T00:57:34.339Z,1.08
2015-08-20T00:57:46.714Z,1.08
2015-08-20T00:57:58.937Z,1.04
2015-08-20T00:58:11.297Z,1.04
2015-08-20T00:58:23.515Z,1.11
2015-08-20T00:58:35.892Z,1.03
2015-08-20T00:58:48.111Z,1
2015-08-20T00:59:00.470Z,1.07
2015-08-20T00:59:12.845Z,1.04
2015-08-20T00:59:25.220Z,1.07
2015-08-20T00:59:37.598Z,1.02
2015-08-20T00:59:49.973Z,1.1
2015-08-20T01:00:01.645Z,1.1
2015-08-20T01:00:14.020Z,1.08
2015-08-20T01:00:26.380Z,1.11
2015-08-20T01:00:38.789Z,1.07
2015-08-20T01:00:51.164Z,1
2015-08-20T01:01:03.539Z,1.1
2015-08-20T01:01:15.914Z,1.03
2015-08-20T01:01:27.586Z,1.11
2015-08-20T01:01:39.977Z,1.02
2015-08-20T01:01:52.384Z,1.03
2015-08-20T01:02:04.806Z,1.12
2015-08-20T01:02:17.196Z,1.08
2015-08-20T01:02:29.602Z,1.07
2015-08-20T01:02:42.012Z,1.11
2015-08-20T01:02:54.402Z,1.03
2015-08-20T01:03:06.809Z,1.04
2015-08-20T01:03:19.230Z,1
2015-08-20T01:03:31.621Z,1.03
2015-08-20T01:03:44.029Z,1.17
2015-08-20T01:03:56.436Z,1.07
2015-08-20T01:04:08.811Z,1.08
2015-08-20T01:04:21.186Z,1.14
2015-08-20T01:04:33.561Z,1.04
2015-08-20T01:04:45.922Z,1.14
2015-08-20T01:04:58.297Z,1.11
2015-08-20T01:05:09.953Z,1.1
2015-08-20T01:05:22.328Z,1.1
2015-08-20T01:05:34.719Z,1.08
2015-08-20T01:05:47.080Z,1.08
2015-08-20T01:05:59.455Z,1.1
2015-08-20T01:06:11.830Z,1.08
2015-08-20T01:06:24.205Z,1.03
2015-08-20T01:06:36.580Z,1.11
2015-08-20T01:06:48.942Z,1.08
2015-08-20T01:07:01.332Z,1.1
2015-08-20T01:07:13.535Z,1.1
2015-08-20T01:07:25.910Z,1.07
2015-08-20T01:07:38.285Z,1.1
2015-08-20T01:07:50.678Z,1.11
2015-08-20T01:08:03.037Z,1.08
2015-08-20T01:08:15.412Z,1.08
2015-08-20T01:08:27.787Z,1.1
2015-08-20T01:08:40.162Z,1.07
2015-08-20T01:08:52.539Z,1.03
2015-08-20T01:09:04.196Z,1.08
2015-08-20T01:09:16.555Z,1.07
2015-08-20T01:09:28.227Z,1.03
2015-08-20T01:09:40.586Z,1.07
2015-08-20T01:09:52.979Z,1.12
2015-08-20T01:10:05.369Z,1.08
2015-08-20T01:10:17.744Z,1.11
2015-08-20T01:10:30.119Z,0.99
2015-08-20T01:10:42.510Z,1.11
2015-08-20T01:10:54.903Z,1.11
2015-08-20T01:11:07.293Z,1.08
2015-08-20T01:11:19.715Z,1.15
2015-08-20T01:11:32.121Z,1.12
2015-08-20T01:11:44.528Z,1.1
2015-08-20T01:11:56.920Z,1.11
2015-08-20T01:12:09.327Z,1.1
2015-08-20T01:12:21.717Z,1.03
2015-08-20T01:12:33.405Z,1.11
2015-08-20T01:12:45.827Z,1.03
2015-08-20T01:12:58.235Z,1.07
2015-08-20T01:13:10.625Z,1.08
2015-08-20T01:13:23.016Z,1.07
2015-08-20T01:13:35.391Z,1.11
2015-08-20T01:13:47.766Z,1.18
2015-08-20T01:14:00.127Z,1.15
2015-08-20T01:14:12.502Z,1.12
2015-08-20T01:14:24.877Z,1.11
2015-08-20T01:14:37.252Z,1.07
2015-08-20T01:14:49.627Z,1.07
2015-08-20T01:15:02.004Z,1.1
2015-08-20T01:15:14.379Z,1.07
2015-08-20T01:15:26.739Z,1.11
2015-08-20T01:15:39.114Z,1.11
2015-08-20T01:15:51.489Z,1.15
2015-08-20T01:16:03.866Z,1.1
2015-08-20T01:16:16.225Z,1.02
2015-08-20T01:16:28.616Z,1.11
2015-08-20T01:16:40.991Z,1.11
2015-08-20T01:16:53.366Z,1.04
2015-08-20T01:17:05.743Z,1.15
2015-08-20T01:17:18.102Z,1.1
2015-08-20T01:17:30.477Z,1.11
2015-08-20T01:17:42.133Z,1.1
2015-08-20T01:17:54.524Z,1.1
2015-08-20T01:18:06.885Z,1.12
2015-08-20T01:18:19.260Z,1.04
2015-08-20T01:18:31.651Z,1.07
2015-08-20T01:18:44.026Z,1.11
2015-08-20T01:18:56.401Z,1.14
2015-08-20T01:19:08.778Z,1.12
2015-08-20T01:19:21.169Z,1.1
2015-08-20T01:19:33.544Z,1.07
2015-08-20T01:19:45.934Z,1.12
2015-08-20T01:19:58.309Z,1.12
2015-08-20T01:20:10.702Z,1.08
2015-08-20T01:20:23.108Z,1.04
2015-08-20T01:20:35.499Z,1.11
2015-08-20T01:20:47.905Z,1.07
2015-08-20T01:21:00.311Z,1.08
2015-08-20T01:21:12.720Z,1.07
2015-08-20T01:21:25.110Z,1
2015-08-20T01:21:37.532Z,1.03
2015-08-20T01:21:49.938Z,1.03
2015-08-20T01:22:02.360Z,1.08
2015-08-20T01:22:14.768Z,1.11
2015-08-20T01:22:27.159Z,1
2015-08-20T01:22:39.550Z,1.03
2015-08-20T01:22:51.972Z,1.1
2015-08-20T01:23:04.347Z,1.03
2015-08-20T01:23:16.724Z,1.1
2015-08-20T01:23:29.099Z,1.08
2015-08-20T01:23:41.474Z,1.12
2015-08-20T01:23:53.849Z,1.04
2015-08-20T01:24:06.208Z,1
2015-08-20T01:24:18.585Z,0.99
2015-08-20T01:24:30.976Z,1.04
2015-08-20T01:24:43.351Z,0.99
2015-08-20T01:24:55.710Z,0.99
2015-08-20T01:25:08.085Z,1.02
2015-08-20T01:25:20.477Z,1.08
2015-08-20T01:25:32.852Z,1.02
2015-08-20T01:25:45.227Z,1.04
2015-08-20T01:25:57.602Z,1.03
2015-08-20T01:26:09.977Z,1.1
2015-08-20T01:26:22.355Z,1.03
2015-08-20T01:26:34.714Z,1.1
2015-08-20T01:26:47.105Z,1.07
2015-08-20T01:26:59.480Z,1.02
2015-08-20T01:27:11.855Z,1
2015-08-20T01:27:24.232Z,1.07
2015-08-20T01:27:36.607Z,1.03
2015-08-20T01:27:48.982Z,1.03
2015-08-20T01:28:01.341Z,0.97
2015-08-20T01:28:13.716Z,1.02
2015-08-20T01:28:26.093Z,1.03
2015-08-20T01:28:37.749Z,0.97
2015-08-20T01:28:50.155Z,1.03
2015-08-20T01:29:02.562Z,1.08
2015-08-20T01:29:14.937Z,1.04
2015-08-20T01:29:27.314Z,1.07
2015-08-20T01:29:39.689Z,1.07
2015-08-20T01:29:52.079Z,1.02
2015-08-20T01:30:04.470Z,1.03
2015-08-20T01:30:16.876Z,1.04
2015-08-20T01:30:29.283Z,1.03
2015-08-20T01:30:41.690Z,0.99
2015-08-20T01:30:54.096Z,1.07
2015-08-20T01:31:06.487Z,1.07
2015-08-20T01:31:18.908Z,0.99
2015-08-20T01:31:31.302Z,1.03
2015-08-20T01:31:43.724Z,1.07
2015-08-20T01:31:56.115Z,1.08
2015-08-20T01:32:08.536Z,1.07
2015-08-20T01:32:20.208Z,1.08
2015-08-20T01:32:32.584Z,1.08
2015-08-20T01:32:44.959Z,1.07
2015-08-20T01:32:57.334Z,1.03
2015-08-20T01:33:09.709Z,1.03
2015-08-20T01:33:22.084Z,1.07
2015-08-20T01:33:34.446Z,0.96
2015-08-20T01:33:46.836Z,0.97
2015-08-20T01:33:59.211Z,1.02
2015-08-20T01:34:11.586Z,0.96
2015-08-20T01:34:23.961Z,0.99
2015-08-20T01:34:36.338Z,1.03
2015-08-20T01:34:48.713Z,1.07
2015-08-20T01:35:01.088Z,1.04
2015-08-20T01:35:13.463Z,1.03
2015-08-20T01:35:25.838Z,1.08
2015-08-20T01:35:37.512Z,1.07
2015-08-20T01:35:49.872Z,1.03
2015-08-20T01:36:02.247Z,1.07
2015-08-20T01:36:14.622Z,1.07
2015-08-20T01:36:26.997Z,1.08
2015-08-20T01:36:39.374Z,0.99
2015-08-20T01:36:51.764Z,0.99
2015-08-20T01:37:04.124Z,1.02
2015-08-20T01:37:16.499Z,1.04
2015-08-20T01:37:28.874Z,1.07
2015-08-20T01:37:41.251Z,0.99
2015-08-20T01:37:53.626Z,1.12
2015-08-20T01:38:06.001Z,1.03
2015-08-20T01:38:18.391Z,1.03
2015-08-20T01:38:30.766Z,1.04
2015-08-20T01:38:43.160Z,1.02
2015-08-20T01:38:55.550Z,1.07
2015-08-20T01:39:07.925Z,0.99
2015-08-20T01:39:20.316Z,1.03
2015-08-20T01:39:32.722Z,1.04
2015-08-20T01:39:45.130Z,1.07
2015-08-20T01:39:57.536Z,1.07
2015-08-20T01:40:09.942Z,1.03
2015-08-20T01:40:22.333Z,1.1
2015-08-20T01:40:34.739Z,1.03
2015-08-20T01:40:47.147Z,1.11
2015-08-20T01:40:59.569Z,1.03
2015-08-20T01:41:11.960Z,0.96
2015-08-20T01:41:24.366Z,1.07
2015-08-20T01:41:36.757Z,1.02
2015-08-20T01:41:49.134Z,1.03
2015-08-20T01:42:01.509Z,1.02
2015-08-20T01:42:13.884Z,1.08
2015-08-20T01:42:26.259Z,0.97
2015-08-20T01:42:38.634Z,1.02
2015-08-20T01:42:51.011Z,1.07
2015-08-20T01:43:03.386Z,1
2015-08-20T01:43:15.761Z,1.04
2015-08-20T01:43:28.136Z,1.04
2015-08-20T01:43:39.792Z,1.08
2015-08-20T01:43:52.169Z,1.02
2015-08-20T01:44:04.544Z,1.12
2015-08-20T01:44:16.919Z,1.08
2015-08-20T01:44:29.294Z,1.02
2015-08-20T01:44:41.669Z,1.04
2015-08-20T01:44:54.046Z,1.17
2015-08-20T01:45:06.421Z,1.1
2015-08-20T01:45:18.780Z,1.1
2015-08-20T01:45:31.155Z,1.12
2015-08-20T01:45:43.546Z,1.1
2015-08-20T01:45:55.923Z,1.2
2015-08-20T01:46:08.298Z,1.11
2015-08-20T01:46:20.673Z,1.1
2015-08-20T01:46:33.032Z,1.14
2015-08-20T01:46:45.423Z,1.11
2015-08-20T01:46:57.784Z,1.08
2015-08-20T01:47:10.159Z,1.14
2015-08-20T01:47:22.534Z,1.14
2015-08-20T01:47:34.940Z,1.14
2015-08-20T01:47:47.315Z,1.1
2015-08-20T01:47:59.709Z,1.12
2015-08-20T01:48:12.084Z,1.1
2015-08-20T01:48:24.475Z,1.07
2015-08-20T01:48:36.865Z,1.08
2015-08-20T01:48:49.272Z,1.14
2015-08-20T01:49:01.679Z,1.11
2015-08-20T01:49:14.069Z,1.11
2015-08-20T01:49:26.476Z,1.04
2015-08-20T01:49:38.882Z,1.18
2015-08-20T01:49:51.288Z,1.08
2015-08-20T01:50:03.713Z,1.17
2015-08-20T01:50:16.135Z,1.12
2015-08-20T01:50:28.541Z,1.08
2015-08-20T01:50:40.979Z,1.21
2015-08-20T01:50:53.354Z,1.08
2015-08-20T01:51:05.730Z,1.14
2015-08-20T01:51:18.105Z,1.1
2015-08-20T01:51:30.480Z,1.1
2015-08-20T01:51:42.855Z,1.15
2015-08-20T01:51:55.230Z,1.12
2015-08-20T01:52:07.607Z,1.21
2015-08-20T01:52:19.982Z,1.21
2015-08-20T01:52:32.357Z,1.1
2015-08-20T01:52:44.747Z,1.2
2015-08-20T01:52:57.122Z,1.17
2015-08-20T01:53:09.499Z,1.18
2015-08-20T01:53:21.874Z,1.17
2015-08-20T01:53:34.249Z,1.1
2015-08-20T01:53:46.640Z,1.17
2015-08-20T01:53:59.015Z,1.1
2015-08-20T01:54:11.376Z,1.08
2015-08-20T01:54:23.751Z,1.03
2015-08-20T01:54:36.126Z,1.15
2015-08-20T01:54:48.517Z,1.1
2015-08-20T01:55:00.892Z,1.15
2015-08-20T01:55:13.269Z,1.12
2015-08-20T01:55:25.644Z,1.14
2015-08-20T01:55:38.035Z,1.1
2015-08-20T01:55:50.410Z,1.1
2015-08-20T01:56:02.785Z,1.11
2015-08-20T01:56:15.162Z,1.15
2015-08-20T01:56:27.537Z,1.11
2015-08-20T01:56:39.927Z,1.11
2015-08-20T01:56:52.302Z,1.07
2015-08-20T01:57:04.693Z,1.04
2015-08-20T01:57:17.070Z,1.17
2015-08-20T01:57:29.460Z,1.14
2015-08-20T01:57:41.851Z,1.04
2015-08-20T01:57:54.101Z,1.11
2015-08-20T01:58:06.507Z,1.11
2015-08-20T01:58:18.900Z,1.15
2015-08-20T01:58:31.306Z,1.11
2015-08-20T01:58:43.697Z,1.12
2015-08-20T01:58:56.103Z,1.07
2015-08-20T01:59:08.494Z,1.08
2015-08-20T01:59:20.902Z,1.1
2015-08-20T01:59:33.308Z,1.12
2015-08-20T01:59:45.714Z,1.15
2015-08-20T01:59:58.105Z,1.11
2015-08-20T02:00:10.480Z,1.08
2015-08-20T02:00:22.857Z,1.14
2015-08-20T02:00:35.248Z,1.17
2015-08-20T02:00:47.623Z,1.1
2015-08-20T02:00:59.998Z,1.17
2015-08-20T02:01:12.388Z,1.1
2015-08-20T02:01:24.765Z,1.07
2015-08-20T02:01:37.140Z,1.12
2015-08-20T02:01:49.515Z,1.12
2015-08-20T02:02:01.890Z,1.17
2015-08-20T02:02:14.265Z,1.12
2015-08-20T02:02:26.642Z,1.08
2015-08-20T02:02:39.017Z,1.22
2015-08-20T02:02:51.392Z,1.04
2015-08-20T02:03:03.767Z,1.1
2015-08-20T02:03:16.142Z,1.17
2015-08-20T02:03:28.519Z,1.17
2015-08-20T02:03:40.894Z,1.1
2015-08-20T02:03:53.269Z,1.17
2015-08-20T02:04:05.644Z,1.18
2015-08-20T02:04:18.019Z,1.21
2015-08-20T02:04:30.678Z,1.15
2015-08-20T02:04:43.053Z,1.18
2015-08-20T02:04:55.428Z,1.15
2015-08-20T02:05:07.803Z,1.21
2015-08-20T02:05:20.178Z,1.17
2015-08-20T02:05:32.555Z,1.1
2015-08-20T02:05:44.930Z,1.17
2015-08-20T02:05:57.320Z,1.17
2015-08-20T02:06:09.695Z,1.14
2015-08-20T02:06:22.086Z,1.18
2015-08-20T02:06:33.760Z,1.17
2015-08-20T02:06:46.135Z,1.18
2015-08-20T02:06:58.541Z,1.21
2015-08-20T02:07:10.932Z,1.18
2015-08-20T02:07:23.353Z,1.2
2015-08-20T02:07:35.746Z,1.18
2015-08-20T02:07:48.152Z,1.17
2015-08-20T02:08:00.543Z,1.08
2015-08-20T02:08:12.949Z,1.08
2015-08-20T02:08:25.340Z,1.17
2015-08-20T02:08:37.748Z,1.04
2015-08-20T02:08:50.139Z,1.15
2015-08-20T02:09:02.545Z,1.12
2015-08-20T02:09:14.951Z,1.12
2015-08-20T02:09:27.357Z,1.03
2015-08-20T02:09:39.719Z,1.1
2015-08-20T02:09:52.094Z,1.07
2015-08-20T02:10:04.453Z,1.11
2015-08-20T02:10:16.813Z,1.14
2015-08-20T02:10:29.188Z,1.1
2015-08-20T02:10:41.565Z,1.12
2015-08-20T02:10:53.940Z,1.11
2015-08-20T02:11:06.315Z,1.12
2015-08-20T02:11:18.705Z,1.1
2015-08-20T02:11:31.080Z,1.07
2015-08-20T02:11:43.442Z,1.1
2015-08-20T02:11:55.817Z,1.04
2015-08-20T02:12:08.192Z,1.04
2015-08-20T02:12:20.567Z,1
2015-08-20T02:12:32.942Z,1.03
2015-08-20T02:12:45.333Z,0.96
2015-08-20T02:12:57.693Z,1.02
2015-08-20T02:13:10.083Z,1.02
2015-08-20T02:13:22.474Z,0.97
2015-08-20T02:13:34.833Z,1.03
2015-08-20T02:13:47.211Z,1.07
2015-08-20T02:13:59.586Z,1.02
2015-08-20T02:14:11.977Z,1.03
2015-08-20T02:14:24.352Z,1.04
2015-08-20T02:14:36.711Z,1
2015-08-20T02:14:49.087Z,1.07
2015-08-20T02:15:01.462Z,1.1
2015-08-20T02:15:13.837Z,1.08
2015-08-20T02:15:26.197Z,0.99
2015-08-20T02:15:38.603Z,1.04
2015-08-20T02:15:50.981Z,1.04
2015-08-20T02:16:03.356Z,1.07
2015-08-20T02:16:15.731Z,1.07
2015-08-20T02:16:28.106Z,1.07
2015-08-20T02:16:40.512Z,1.02
2015-08-20T02:16:52.905Z,1.03
2015-08-20T02:17:05.327Z,1.07
2015-08-20T02:17:17.717Z,1
2015-08-20T02:17:30.123Z,1.03
2015-08-20T02:17:42.514Z,1.07
2015-08-20T02:17:54.907Z,1.04
2015-08-20T02:18:07.313Z,1.07
2015-08-20T02:18:19.719Z,1.04
2015-08-20T02:18:32.125Z,1
2015-08-20T02:18:44.516Z,1.03
2015-08-20T02:18:56.923Z,1.08
2015-08-20T02:19:09.298Z,1.07
2015-08-20T02:19:21.673Z,1.04
2015-08-20T02:19:34.048Z,1.03
2015-08-20T02:19:46.423Z,1.12
2015-08-20T02:19:58.800Z,1.12
2015-08-20T02:20:11.175Z,1.12
2015-08-20T02:20:23.550Z,1.1
2015-08-20T02:20:35.925Z,1.07
2015-08-20T02:20:48.300Z,1.07
2015-08-20T02:20:59.960Z,1.07
2015-08-20T02:21:12.335Z,1.1
2015-08-20T02:21:24.710Z,1.11
2015-08-20T02:21:37.085Z,1.14
2015-08-20T02:21:49.460Z,1.11
2015-08-20T02:22:01.868Z,1.17
2015-08-20T02:22:14.243Z,1.12
2015-08-20T02:22:26.618Z,1.21
2015-08-20T02:22:38.274Z,1.1
2015-08-20T02:22:50.649Z,1.21
2015-08-20T02:23:03.026Z,1.17
2015-08-20T02:23:15.401Z,1.15
2015-08-20T02:23:27.776Z,1.07
2015-08-20T02:23:40.151Z,1.07
2015-08-20T02:23:52.526Z,1.1
2015-08-20T02:24:04.903Z,1.18
2015-08-20T02:24:17.278Z,1.15
2015-08-20T02:24:29.653Z,1.11
2015-08-20T02:24:42.028Z,1.12
2015-08-20T02:24:54.434Z,1.11
2015-08-20T02:25:06.810Z,1.1
2015-08-20T02:25:19.185Z,1.17
2015-08-20T02:25:31.560Z,1.07
2015-08-20T02:25:43.951Z,1.07
2015-08-20T02:25:56.326Z,1.11
2015-08-20T02:26:08.734Z,1.14
2015-08-20T02:26:21.140Z,1.08
2015-08-20T02:26:33.547Z,1.14
2015-08-20T02:26:45.953Z,1.17
2015-08-20T02:26:58.344Z,1.12
2015-08-20T02:27:10.768Z,1.15
2015-08-20T02:27:23.159Z,1.15
2015-08-20T02:27:35.565Z,1.17
2015-08-20T02:27:47.972Z,1.11
2015-08-20T02:28:00.362Z,1.07
2015-08-20T02:28:12.802Z,1.17
2015-08-20T02:28:25.192Z,1.04
2015-08-20T02:28:37.567Z,1.14
2015-08-20T02:28:49.942Z,1.14
2015-08-20T02:29:02.317Z,1.1
2015-08-20T02:29:14.693Z,1.07
2015-08-20T02:29:27.068Z,1.12
2015-08-20T02:29:39.443Z,1.07
2015-08-20T02:29:51.803Z,1.14
2015-08-20T02:30:04.193Z,1.1
2015-08-20T02:30:16.570Z,1.12
2015-08-20T02:30:28.945Z,1.1
2015-08-20T02:30:41.320Z,1.04
2015-08-20T02:30:53.695Z,1.18
2015-08-20T02:31:06.070Z,1.08
2015-08-20T02:31:18.447Z,1.02
2015-08-20T02:31:30.854Z,1.11
2015-08-20T02:31:43.229Z,1.14
2015-08-20T02:31:55.588Z,1.11
2015-08-20T02:32:07.979Z,1.07
2015-08-20T02:32:20.356Z,1.12
2015-08-20T02:32:32.746Z,1.12
2015-08-20T02:32:45.106Z,1.12
2015-08-20T02:32:57.496Z,1.1
2015-08-20T02:33:09.871Z,1.08
2015-08-20T02:33:22.248Z,1.12
2015-08-20T02:33:34.623Z,1.12
2015-08-20T02:33:46.998Z,1.15
2015-08-20T02:33:59.373Z,1.12
2015-08-20T02:34:11.748Z,1.1
2015-08-20T02:34:24.141Z,1.18
2015-08-20T02:34:36.516Z,1.14
2015-08-20T02:34:48.906Z,1.08
2015-08-20T02:35:01.281Z,1.04
2015-08-20T02:35:13.672Z,1.22
2015-08-20T02:35:26.065Z,1.17
2015-08-20T02:35:38.471Z,1.18
2015-08-20T02:35:50.721Z,1.17
2015-08-20T02:36:03.112Z,1.14
2015-08-20T02:36:15.533Z,1.21
2015-08-20T02:36:27.942Z,1.15
2015-08-20T02:36:40.364Z,1.17
2015-08-20T02:36:52.770Z,1.18
2015-08-20T02:37:05.176Z,1.1
2015-08-20T02:37:17.582Z,1.15
2015-08-20T02:37:29.991Z,1.14
2015-08-20T02:37:42.412Z,1.17
2015-08-20T02:37:54.069Z,1.04
2015-08-20T02:38:06.459Z,1.1
2015-08-20T02:38:18.819Z,1.17
2015-08-20T02:38:31.196Z,1.04
2015-08-20T02:38:43.571Z,1.11
2015-08-20T02:38:55.946Z,1.08
2015-08-20T02:39:08.321Z,1.17
2015-08-20T02:39:20.696Z,1.14
2015-08-20T02:39:33.073Z,1.18
2015-08-20T02:39:45.448Z,1.15
2015-08-20T02:39:57.823Z,1.14
2015-08-20T02:40:10.198Z,1.18
2015-08-20T02:40:22.557Z,1.18
2015-08-20T02:40:34.934Z,1.11
2015-08-20T02:40:47.325Z,1.04
2015-08-20T02:40:59.715Z,1.15
2015-08-20T02:41:12.090Z,1.07
2015-08-20T02:41:24.450Z,1.08
2015-08-20T02:41:36.827Z,1.07
2015-08-20T02:41:49.217Z,1.17
2015-08-20T02:42:01.592Z,1.15
2015-08-20T02:42:13.952Z,1.1
2015-08-20T02:42:26.342Z,1.18
2015-08-20T02:42:38.719Z,1.11
2015-08-20T02:42:51.094Z,1.08
2015-08-20T02:43:03.469Z,1.12
2015-08-20T02:43:15.844Z,1.15
2015-08-20T02:43:28.204Z,1.18
2015-08-20T02:43:40.596Z,1.14
2015-08-20T02:43:52.987Z,1.12
2015-08-20T02:44:05.378Z,1.2
2015-08-20T02:44:17.753Z,1.17
2015-08-20T02:44:30.128Z,1.07
2015-08-20T02:44:42.520Z,1.08
2015-08-20T02:44:54.911Z,1.17
2015-08-20T02:45:07.301Z,1.17
2015-08-20T02:45:19.708Z,1.17
2015-08-20T02:45:32.130Z,1.2
2015-08-20T02:45:43.788Z,1.21
2015-08-20T02:45:56.163Z,1.12